createdAt,value
2023-11-24T00:02:21.536Z,0
2023-11-24T00:07:21.565Z,0
2023-11-24T00:12:21.577Z,0
2023-11-24T00:17:21.489Z,0
2023-11-24T00:22:21.501Z,0
2023-11-24T00:27:21.592Z,0
2023-11-24T00:32:21.647Z,0
2023-11-24T00:37:21.594Z,0
2023-11-24T00:42:21.560Z,0
2023-11-24T00:47:21.518Z,0
2023-11-24T00:52:21.620Z,0
2023-11-24T00:57:21.612Z,0
2023-11-24T01:02:21.593Z,0
2023-11-24T01:07:21.595Z,0
2023-11-24T01:12:21.616Z,0
2023-11-24T01:17:21.626Z,0
2023-11-24T01:22:21.559Z,0
2023-11-24T01:27:21.663Z,0
2023-11-24T01:32:21.598Z,0
2023-11-24T01:37:21.549Z,0
2023-11-24T01:42:21.586Z,0
2023-11-24T01:47:21.604Z,0
2023-11-24T01:52:21.493Z,0
2023-11-24T01:57:21.674Z,0
2023-11-24T02:02:21.573Z,0
2023-11-24T02:07:21.610Z,0
2023-11-24T02:12:21.552Z,0
2023-11-24T02:17:21.523Z,0
2023-11-24T02:22:21.529Z,0
2023-11-24T02:27:21.580Z,0
2023-11-24T02:32:21.532Z,0
2023-11-24T02:37:21.494Z,0
2023-11-24T02:42:21.493Z,0
2023-11-24T02:47:21.592Z,0
2023-11-24T02:52:21.526Z,0
2023-11-24T02:57:21.565Z,0
2023-11-24T03:02:21.828Z,0
2023-11-24T03:07:21.552Z,0
2023-11-24T03:12:21.559Z,0
2023-11-24T03:17:21.507Z,0
2023-11-24T03:22:21.527Z,0
2023-11-24T03:27:21.547Z,0
2023-11-24T03:32:21.542Z,0
2023-11-24T03:37:21.531Z,0
2023-11-24T03:42:21.509Z,0
2023-11-24T03:47:21.520Z,0
2023-11-24T03:52:21.532Z,0
2023-11-24T03:57:21.533Z,0
2023-11-24T04:02:21.622Z,0
2023-11-24T04:07:21.534Z,0
2023-11-24T04:12:21.551Z,0
2023-11-24T04:17:21.540Z,0
2023-11-24T04:22:21.577Z,0
2023-11-24T04:27:21.506Z,0
2023-11-24T04:32:21.561Z,0
2023-11-24T04:37:21.527Z,0
2023-11-24T04:42:21.615Z,0
2023-11-24T04:47:21.557Z,0
2023-11-24T04:52:21.539Z,0
2023-11-24T04:57:21.517Z,0
2023-11-24T05:02:21.567Z,0
2023-11-24T05:07:21.572Z,0
2023-11-24T05:12:21.540Z,0
2023-11-24T05:17:21.565Z,0
2023-11-24T05:22:21.542Z,0
2023-11-24T05:27:21.493Z,0
2023-11-24T05:32:21.559Z,0
2023-11-24T05:37:21.564Z,0
2023-11-24T05:42:21.603Z,0
2023-11-24T05:47:21.611Z,0
2023-11-24T05:52:21.685Z,0
2023-11-24T05:57:21.573Z,0
2023-11-24T06:02:21.554Z,0
2023-11-24T06:07:21.584Z,0
2023-11-24T06:12:21.525Z,0
2023-11-24T06:17:21.551Z,0
2023-11-24T06:22:21.560Z,0
2023-11-24T06:27:21.722Z,0
2023-11-24T06:32:21.581Z,259
2023-11-24T06:37:21.550Z,263
2023-11-24T06:42:21.625Z,267
2023-11-24T06:47:21.622Z,268
2023-11-24T06:52:22.654Z,281
2023-11-24T06:57:21.565Z,285
2023-11-24T07:02:21.668Z,290
2023-11-24T07:07:21.568Z,283
2023-11-24T07:12:21.526Z,308
2023-11-24T07:17:21.546Z,318
2023-11-24T07:22:21.543Z,311
2023-11-24T07:27:21.608Z,318
2023-11-24T07:32:21.590Z,322
2023-11-24T07:37:21.669Z,358
2023-11-24T07:42:21.537Z,336
2023-11-24T07:47:23.095Z,375
2023-11-24T07:52:21.581Z,549
2023-11-24T07:57:21.529Z,395
2023-11-24T08:02:21.655Z,808
2023-11-24T08:07:21.614Z,669
2023-11-24T08:12:21.566Z,675
2023-11-24T08:17:21.586Z,711
2023-11-24T08:22:21.568Z,824
2023-11-24T08:27:21.579Z,815
2023-11-24T08:32:21.568Z,1064
2023-11-24T08:37:21.565Z,776
2023-11-24T08:42:21.581Z,729
2023-11-24T08:47:21.601Z,794
2023-11-24T08:52:21.602Z,528
2023-11-24T08:57:21.567Z,855
2023-11-24T09:02:21.661Z,1242
2023-11-24T09:07:22.991Z,1181
2023-11-24T09:12:21.658Z,1369
2023-11-24T09:17:21.695Z,967
2023-11-24T09:22:21.681Z,1048
2023-11-24T09:27:21.556Z,1111
2023-11-24T09:32:21.584Z,1182
2023-11-24T09:37:21.587Z,1112
2023-11-24T09:42:23.139Z,877
2023-11-24T09:47:21.636Z,1274
2023-11-24T09:52:21.625Z,1250
2023-11-24T09:57:21.580Z,1351
2023-11-24T10:02:21.680Z,951
2023-11-24T10:07:21.579Z,802
2023-11-24T10:12:21.598Z,800
2023-11-24T10:17:21.596Z,604
2023-11-24T10:22:21.582Z,629
2023-11-24T10:27:21.539Z,663
2023-11-24T10:32:21.604Z,672
2023-11-24T10:37:22.653Z,663
2023-11-24T10:42:21.647Z,747
2023-11-24T10:47:21.653Z,1359
2023-11-24T10:52:22.784Z,1333
2023-11-24T10:57:21.613Z,753
2023-11-24T11:02:21.713Z,844
2023-11-24T11:07:21.596Z,720
2023-11-24T11:12:21.591Z,646
2023-11-24T11:17:21.600Z,556
2023-11-24T11:22:21.633Z,939
2023-11-24T11:27:21.627Z,836
2023-11-24T11:32:22.438Z,646
2023-11-24T11:37:21.640Z,915
2023-11-24T11:42:21.611Z,1216
2023-11-24T11:47:21.780Z,593
2023-11-24T11:52:21.849Z,557
2023-11-24T11:57:21.649Z,953
2023-11-24T12:02:21.716Z,606
2023-11-24T12:07:21.727Z,533
2023-11-24T12:12:21.596Z,465
2023-11-24T12:17:21.580Z,460
2023-11-24T12:22:21.613Z,519
2023-11-24T12:27:22.983Z,665
2023-11-24T12:32:21.611Z,476
2023-11-24T12:37:21.675Z,319
2023-11-24T12:42:21.614Z,316
2023-11-24T12:47:21.608Z,270
2023-11-24T12:52:21.624Z,266
2023-11-24T12:57:21.621Z,312
2023-11-24T13:02:38.832Z,394
2023-11-24T13:07:21.694Z,344
2023-11-24T13:12:21.618Z,420
2023-11-24T13:17:21.648Z,673
2023-11-24T13:22:23.190Z,456
2023-11-24T13:27:21.632Z,417
2023-11-24T13:32:21.644Z,437
2023-11-24T13:37:21.650Z,618
2023-11-24T13:42:21.636Z,553
2023-11-24T13:47:22.914Z,519
2023-11-24T13:52:21.754Z,545
2023-11-24T13:57:21.669Z,479
2023-11-24T14:02:21.933Z,382
2023-11-24T14:07:21.713Z,367
2023-11-24T14:12:21.637Z,350
2023-11-24T14:17:21.621Z,306
2023-11-24T14:22:21.672Z,292
2023-11-24T14:27:21.682Z,281
2023-11-24T14:32:21.657Z,278
2023-11-24T14:37:21.679Z,278
2023-11-24T14:42:21.623Z,274
2023-11-24T14:47:21.672Z,280
2023-11-24T14:52:21.684Z,282
2023-11-24T14:57:21.728Z,315
2023-11-24T15:02:21.708Z,282
2023-11-24T15:07:21.695Z,271
2023-11-24T15:12:21.654Z,260
2023-11-24T15:17:21.622Z,257
2023-11-24T15:22:21.653Z,0
2023-11-24T15:27:21.793Z,0
2023-11-24T15:32:21.685Z,0
2023-11-24T15:37:21.753Z,0
2023-11-24T15:42:21.661Z,0
2023-11-24T15:47:21.675Z,0
2023-11-24T15:52:21.676Z,0
2023-11-24T15:57:21.669Z,0
2023-11-24T16:02:21.902Z,0
2023-11-24T16:07:21.700Z,0
2023-11-24T16:12:21.653Z,0
2023-11-24T16:17:21.778Z,0
2023-11-24T16:22:21.664Z,0
2023-11-24T16:27:21.674Z,0
2023-11-24T16:32:21.698Z,0
2023-11-24T16:37:21.740Z,0
2023-11-24T16:42:21.644Z,0
2023-11-24T16:47:21.656Z,0
2023-11-24T16:52:21.740Z,0
2023-11-24T16:57:21.697Z,0
2023-11-24T17:02:23.119Z,0
2023-11-24T17:07:21.696Z,0
2023-11-24T17:12:21.636Z,0
2023-11-24T17:17:21.660Z,0
2023-11-24T17:22:21.710Z,0
2023-11-24T17:27:21.653Z,0
2023-11-24T17:32:21.667Z,0
2023-11-24T17:37:21.764Z,0
2023-11-24T17:42:21.699Z,0
2023-11-24T17:47:21.674Z,0
2023-11-24T17:52:21.687Z,0
2023-11-24T17:57:21.668Z,0
2023-11-24T18:02:21.716Z,0
2023-11-24T18:07:21.711Z,0
2023-11-24T18:12:21.689Z,0
2023-11-24T18:17:21.701Z,0
2023-11-24T18:22:21.710Z,0
2023-11-24T18:27:21.665Z,0
2023-11-24T18:32:21.655Z,0
2023-11-24T18:37:21.746Z,0
2023-11-24T18:42:21.727Z,0
2023-11-24T18:47:23.560Z,0
2023-11-24T18:52:21.785Z,0
2023-11-24T18:57:21.647Z,0
2023-11-24T19:02:21.724Z,0
2023-11-24T19:07:21.662Z,0
2023-11-24T19:12:21.701Z,0
2023-11-24T19:17:21.660Z,0
2023-11-24T19:22:21.711Z,0
2023-11-24T19:27:21.711Z,0
2023-11-24T19:32:21.733Z,0
2023-11-24T19:37:21.663Z,0
2023-11-24T19:42:22.629Z,0
2023-11-24T19:47:21.690Z,0
2023-11-24T19:52:21.744Z,0
2023-11-24T19:57:21.733Z,0
2023-11-24T20:02:21.703Z,0
2023-11-24T20:07:24.404Z,0
2023-11-24T20:12:21.705Z,0
2023-11-24T20:17:21.736Z,0
2023-11-24T20:22:21.766Z,0
2023-11-24T20:27:21.681Z,0
2023-11-24T20:32:21.699Z,0
2023-11-24T20:37:21.705Z,0
2023-11-24T20:42:21.691Z,0
2023-11-24T20:47:21.722Z,0
2023-11-24T20:52:21.748Z,0
2023-11-24T20:57:21.706Z,0
2023-11-24T21:02:21.808Z,0
2023-11-24T21:07:21.780Z,0
2023-11-24T21:12:21.718Z,0
2023-11-24T21:17:23.081Z,0
2023-11-24T21:22:21.804Z,0
2023-11-24T21:27:21.682Z,0
2023-11-24T21:32:21.698Z,0
2023-11-24T21:37:21.706Z,0
2023-11-24T21:42:21.696Z,0
2023-11-24T21:47:21.759Z,0
2023-11-24T21:52:21.736Z,0
2023-11-24T21:57:21.724Z,0
2023-11-24T22:02:21.795Z,0
2023-11-24T22:07:21.732Z,0
2023-11-24T22:12:22.628Z,0
2023-11-24T22:17:22.743Z,0
2023-11-24T22:22:22.796Z,0
2023-11-24T22:27:22.730Z,0
2023-11-24T22:32:22.761Z,0
2023-11-24T22:37:22.742Z,0
2023-11-24T22:42:22.933Z,0
2023-11-24T22:47:22.796Z,0
2023-11-24T22:52:22.768Z,0
2023-11-24T22:57:22.738Z,0
2023-11-24T23:02:22.729Z,0
2023-11-24T23:07:22.772Z,0
2023-11-24T23:12:22.718Z,0
2023-11-24T23:17:22.699Z,0
2023-11-24T23:22:27.330Z,0
2023-11-24T23:27:22.714Z,0
2023-11-24T23:32:22.818Z,0
2023-11-24T23:37:22.766Z,0
2023-11-24T23:42:22.697Z,0
2023-11-24T23:47:22.825Z,0
2023-11-24T23:52:22.728Z,0
2023-11-24T23:57:22.710Z,0
